Time;durP1;ratioP1;P1;durP2;ratioP2;P2;SDS_P1;SDS_P2;PMS_P1;PMS_P2;Temp;Humidity;BMP_temperature;BMP_pressure;BME280_temperature;BME280_humidity;BME280_pressure;Samples;Min_cycle;Max_cycle;Signal;HPM_P1;HPM_P2
2022/07/27 00:00:01;;;;;;;9.80;9.50;;;19.20;99.90;;;;;;5122909;28;20228;-83
2022/07/27 00:02:29;;;;;;;9.82;9.52;;;19.10;99.90;;;;;;5125477;28;20323;-83
2022/07/27 00:04:57;;;;;;;10.20;9.90;;;19.10;99.90;;;;;;5126158;28;20224;-83
2022/07/27 00:07:24;;;;;;;9.73;9.43;;;19.10;99.90;;;;;;5126309;28;20224;-83
2022/07/27 00:09:52;;;;;;;10.10;9.80;;;19.20;99.90;;;;;;5126464;28;20260;-83
2022/07/27 00:12:20;;;;;;;9.90;9.60;;;19.20;99.90;;;;;;5126327;28;20288;-83
2022/07/27 00:14:47;;;;;;;9.60;9.30;;;19.10;99.90;;;;;;5125158;28;20275;-83
2022/07/27 00:17:21;;;;;;;9.60;9.30;;;19.10;99.90;;;;;;5125751;28;20292;-83
2022/07/27 00:19:49;;;;;;;9.70;9.40;;;19.10;99.90;;;;;;5125998;28;20236;-83
2022/07/27 00:22:17;;;;;;;9.80;9.50;;;19.10;99.90;;;;;;5126491;28;20320;-83
2022/07/27 00:24:45;;;;;;;9.60;9.30;;;19.00;99.90;;;;;;5127851;28;20247;-83
2022/07/27 00:27:13;;;;;;;9.45;9.15;;;19.00;99.90;;;;;;5137383;28;20236;-83
2022/07/27 00:29:41;;;;;;;9.40;9.10;;;19.00;99.90;;;;;;5138656;28;20213;-84
2022/07/27 00:32:09;;;;;;;9.60;9.30;;;18.90;99.90;;;;;;5139619;28;20216;-83
2022/07/27 00:34:38;;;;;;;9.40;9.10;;;18.80;99.90;;;;;;5140536;27;20220;-83
2022/07/27 00:37:06;;;;;;;9.30;9.00;;;18.70;99.90;;;;;;5141201;27;20276;-82
2022/07/27 00:39:34;;;;;;;9.40;9.10;;;18.60;99.90;;;;;;5141155;28;20213;-83
2022/07/27 00:42:01;;;;;;;9.75;9.45;;;18.40;99.90;;;;;;5141546;27;20217;-83
2022/07/27 00:44:31;;;;;;;9.57;9.27;;;18.30;99.90;;;;;;5142338;27;20236;-83
2022/07/27 00:46:59;;;;;;;9.50;9.20;;;18.30;99.90;;;;;;5143170;27;20209;-82
2022/07/27 00:49:27;;;;;;;9.52;9.23;;;18.30;99.90;;;;;;5142055;28;20237;-83
2022/07/27 00:51:56;;;;;;;9.50;9.20;;;18.30;99.90;;;;;;5141386;27;20228;-84
2022/07/27 00:54:24;;;;;;;9.73;9.43;;;18.30;99.90;;;;;;5142436;27;20213;-84
2022/07/27 00:56:52;;;;;;;9.40;9.10;;;18.20;99.90;;;;;;5143220;27;20229;-83
2022/07/27 00:59:20;;;;;;;9.30;9.00;;;18.10;99.90;;;;;;5142700;27;20232;-84
2022/07/27 01:01:48;;;;;;;9.27;8.98;;;18.10;99.90;;;;;;5142403;27;20217;-83
2022/07/27 01:04:16;;;;;;;9.50;9.20;;;18.00;99.90;;;;;;5141523;27;20220;-84
2022/07/27 01:06:44;;;;;;;9.50;9.20;;;18.00;99.90;;;;;;5141114;27;20320;-84
2022/07/27 01:11:58;;;;;;;9.38;9.07;;;18.00;99.90;;;;;;5140755;27;20221;-83
2022/07/27 01:14:26;;;;;;;9.30;9.00;;;17.90;99.90;;;;;;5134798;28;20284;-84
2022/07/27 01:16:54;;;;;;;9.50;9.20;;;17.80;99.90;;;;;;5131217;28;20288;-83
2022/07/27 01:19:21;;;;;;;9.50;9.20;;;17.80;99.90;;;;;;5130087;28;20228;-83
2022/07/27 01:21:50;;;;;;;9.40;9.10;;;17.80;99.90;;;;;;5128536;28;20759;-84
2022/07/27 01:24:17;;;;;;;9.57;9.27;;;17.70;99.90;;;;;;5128775;28;20240;-84
2022/07/27 01:26:45;;;;;;;9.20;8.90;;;17.70;99.90;;;;;;5128265;28;20229;-83
2022/07/27 01:29:12;;;;;;;9.30;9.00;;;17.60;99.90;;;;;;5127796;28;20264;-83
2022/07/27 01:31:40;;;;;;;9.30;9.00;;;17.50;99.90;;;;;;5127413;28;20244;-83
2022/07/27 01:34:08;;;;;;;9.45;9.15;;;17.40;99.90;;;;;;5127686;28;20205;-84
2022/07/27 01:36:35;;;;;;;9.20;8.90;;;17.40;99.90;;;;;;5127031;28;20233;-83
2022/07/27 01:39:05;;;;;;;9.30;9.00;;;17.30;99.90;;;;;;5127151;28;20340;-83
2022/07/27 01:41:32;;;;;;;9.27;8.98;;;17.20;99.90;;;;;;5125698;28;20562;-83
2022/07/27 01:44:00;;;;;;;9.20;8.90;;;17.20;99.90;;;;;;5126581;28;20271;-84
2022/07/27 01:46:28;;;;;;;9.30;9.00;;;17.10;99.90;;;;;;5125783;28;20233;-83
2022/07/27 01:48:56;;;;;;;9.25;8.95;;;17.10;99.90;;;;;;5125732;28;20239;-83
2022/07/27 01:51:23;;;;;;;9.20;8.90;;;17.00;99.90;;;;;;5125575;28;20256;-82
2022/07/27 01:53:51;;;;;;;9.48;9.18;;;17.00;99.90;;;;;;5125459;28;20220;-84
2022/07/27 01:56:20;;;;;;;9.32;9.02;;;17.00;99.90;;;;;;5124128;28;20265;-83
2022/07/27 01:58:47;;;;;;;9.15;8.90;;;17.10;99.90;;;;;;5125246;28;20272;-83
2022/07/27 02:01:15;;;;;;;9.30;9.00;;;17.00;99.90;;;;;;5123627;28;20260;-83
2022/07/27 02:03:42;;;;;;;9.20;8.90;;;17.00;99.90;;;;;;5124729;28;20225;-83
2022/07/27 02:06:10;;;;;;;9.10;8.80;;;16.90;99.90;;;;;;5124228;28;20236;-83
2022/07/27 02:08:38;;;;;;;9.30;9.00;;;16.90;99.90;;;;;;5124918;28;20229;-83
2022/07/27 02:13:52;;;;;;;9.50;9.20;;;16.90;99.90;;;;;;5123977;28;20228;-83
2022/07/27 02:16:20;;;;;;;9.60;9.30;;;16.90;99.90;;;;;;5122605;28;20314;-83
2022/07/27 02:18:47;;;;;;;9.32;9.02;;;16.90;99.90;;;;;;5123995;28;20320;-83
2022/07/27 02:21:15;;;;;;;9.20;8.90;;;17.00;99.90;;;;;;5124498;28;20237;-83
2022/07/27 02:23:43;;;;;;;9.38;9.07;;;17.00;99.90;;;;;;5123410;27;20220;-83
2022/07/27 02:26:11;;;;;;;9.43;9.13;;;17.00;99.90;;;;;;5123259;28;20237;-83
2022/07/27 02:28:38;;;;;;;9.30;9.00;;;17.10;99.90;;;;;;5123315;28;20225;-83
2022/07/27 02:31:08;;;;;;;9.45;9.15;;;17.10;99.90;;;;;;5122581;28;20236;-83
2022/07/27 02:33:35;;;;;;;8.90;8.70;;;17.10;99.90;;;;;;5122674;28;20225;-82
2022/07/27 02:36:03;;;;;;;8.90;8.70;;;17.10;99.90;;;;;;5122935;28;20331;-83
2022/07/27 02:38:31;;;;;;;9.23;8.93;;;17.10;99.90;;;;;;5124156;28;20257;-83
2022/07/27 02:40:58;;;;;;;9.00;8.80;;;17.10;99.90;;;;;;5122620;28;20273;-83
2022/07/27 02:43:26;;;;;;;8.93;8.73;;;17.10;99.90;;;;;;5123870;28;20260;-83
2022/07/27 02:45:54;;;;;;;8.93;8.73;;;17.10;99.90;;;;;;5123624;28;20259;-83
2022/07/27 02:48:23;;;;;;;9.13;8.82;;;17.10;99.90;;;;;;5122932;28;20804;-83
2022/07/27 02:50:50;;;;;;;9.00;8.80;;;17.10;99.90;;;;;;5122589;28;20264;-83
2022/07/27 02:53:18;;;;;;;9.20;8.90;;;17.10;99.90;;;;;;5123716;28;20243;-84
2022/07/27 02:55:46;;;;;;;8.90;8.70;;;17.10;99.90;;;;;;5123142;28;20285;-83
2022/07/27 02:58:13;;;;;;;9.00;8.80;;;17.10;99.90;;;;;;5124190;28;20231;-83
2022/07/27 03:00:41;;;;;;;9.00;8.80;;;17.10;99.90;;;;;;5123297;28;20229;-83
2022/07/27 03:03:08;;;;;;;8.70;8.50;;;17.10;99.90;;;;;;5124363;28;20213;-83
2022/07/27 03:05:38;;;;;;;8.63;8.43;;;17.10;99.90;;;;;;5124714;28;20315;-83
2022/07/27 03:08:06;;;;;;;8.63;8.43;;;17.10;99.90;;;;;;5123419;28;20362;-83
2022/07/27 03:10:34;;;;;;;8.90;8.70;;;17.00;99.90;;;;;;5120961;28;20241;-83
2022/07/27 03:13:01;;;;;;;8.90;8.70;;;16.90;99.90;;;;;;5120163;28;20232;-83
2022/07/27 03:15:29;;;;;;;9.77;9.48;;;16.80;99.90;;;;;;5121383;28;21102;-83
2022/07/27 03:17:57;;;;;;;9.60;9.30;;;16.80;99.90;;;;;;5121697;28;20292;-83
2022/07/27 03:20:24;;;;;;;9.60;9.30;;;16.80;99.90;;;;;;5121431;28;20228;-83
2022/07/27 03:22:54;;;;;;;9.30;9.00;;;16.80;99.90;;;;;;5121033;28;20223;-83
2022/07/27 03:25:21;;;;;;;9.40;9.10;;;16.80;99.90;;;;;;5119974;28;20240;-83
2022/07/27 03:27:49;;;;;;;9.60;9.30;;;16.70;99.90;;;;;;5120917;28;20246;-83
2022/07/27 03:30:17;;;;;;;9.00;8.80;;;16.70;99.90;;;;;;5120889;28;20232;-83
2022/07/27 03:32:44;;;;;;;9.80;9.50;;;16.70;99.90;;;;;;5121190;28;20229;-83
2022/07/27 03:35:12;;;;;;;10.20;9.90;;;16.70;99.90;;;;;;5122167;28;20290;-83
2022/07/27 03:37:40;;;;;;;10.20;9.90;;;16.60;99.90;;;;;;5125438;28;20356;-83
2022/07/27 03:40:10;;;;;;;9.90;9.60;;;16.60;99.90;;;;;;5124998;28;20233;-83
2022/07/27 03:42:38;;;;;;;10.25;9.95;;;16.60;99.90;;;;;;5124174;28;21005;-83
2022/07/27 03:45:08;;;;;;;10.13;9.82;;;16.40;99.90;;;;;;5124371;28;20233;-83
2022/07/27 03:47:35;;;;;;;10.18;9.88;;;16.20;99.90;;;;;;5124593;28;20232;-83
2022/07/27 03:50:04;;;;;;;10.00;9.70;;;16.10;99.90;;;;;;5125447;28;20243;-83
2022/07/27 03:52:32;;;;;;;10.07;9.77;;;16.00;99.90;;;;;;5126040;28;20216;-83
2022/07/27 03:54:59;;;;;;;9.70;9.40;;;16.10;99.90;;;;;;5125806;28;20225;-83
2022/07/27 03:57:28;;;;;;;9.70;9.40;;;16.10;99.90;;;;;;5125949;28;20260;-83
2022/07/27 03:59:56;;;;;;;9.50;9.20;;;16.00;99.90;;;;;;5128235;28;20293;-83
2022/07/27 04:02:23;;;;;;;9.50;9.20;;;16.00;99.90;;;;;;5127069;28;20229;-83
2022/07/27 04:04:51;;;;;;;9.20;8.90;;;16.10;99.90;;;;;;5126251;28;20320;-83
2022/07/27 04:07:19;;;;;;;9.57;9.27;;;16.20;99.90;;;;;;5125819;28;20293;-83
2022/07/27 04:09:47;;;;;;;9.30;9.00;;;16.20;99.90;;;;;;5125881;28;20323;-83
2022/07/27 04:12:14;;;;;;;9.35;9.05;;;16.30;99.90;;;;;;5125614;28;20221;-83
2022/07/27 04:14:44;;;;;;;9.20;8.90;;;16.30;99.90;;;;;;5126140;28;20233;-83
2022/07/27 04:17:11;;;;;;;9.18;8.88;;;16.30;99.90;;;;;;5125160;28;20228;-83
2022/07/27 04:19:39;;;;;;;9.55;9.25;;;16.40;99.90;;;;;;5126146;28;20255;-83
2022/07/27 04:22:06;;;;;;;9.65;9.35;;;16.40;99.90;;;;;;5125772;28;20292;-83
2022/07/27 04:24:34;;;;;;;9.80;9.50;;;16.40;99.90;;;;;;5126895;28;20244;-83
2022/07/27 04:27:02;;;;;;;9.38;9.07;;;16.50;99.90;;;;;;5126773;28;20233;-83
2022/07/27 04:29:29;;;;;;;9.70;9.40;;;16.50;99.90;;;;;;5126739;28;20228;-82
2022/07/27 04:31:58;;;;;;;9.80;9.50;;;16.50;99.90;;;;;;5126112;28;20225;-84
2022/07/27 04:34:26;;;;;;;9.60;9.30;;;16.50;99.90;;;;;;5126828;28;20221;-82
2022/07/27 04:36:53;;;;;;;9.65;9.35;;;16.50;99.90;;;;;;5128076;28;20232;-83
2022/07/27 04:39:21;;;;;;;9.60;9.30;;;16.50;99.90;;;;;;5126763;28;20236;-82
2022/07/27 04:41:48;;;;;;;9.65;9.35;;;16.60;99.90;;;;;;5158239;22;20224;-81
2022/07/27 04:44:16;;;;;;;9.80;9.50;;;16.60;99.90;;;;;;5137497;27;20323;-82
2022/07/27 04:46:44;;;;;;;9.65;9.35;;;16.70;99.90;;;;;;5127403;27;20306;-81
2022/07/27 04:49:23;;;;;;;9.82;9.52;;;16.80;99.90;;;;;;5129060;27;20252;-81
2022/07/27 04:51:51;;;;;;;9.90;9.60;;;16.80;99.90;;;;;;5133653;27;20280;-82
2022/07/27 04:54:21;;;;;;;9.98;9.68;;;16.90;99.90;;;;;;5130173;27;20248;-82
2022/07/27 04:56:50;;;;;;;9.75;9.45;;;17.00;99.90;;;;;;5137376;27;20251;-82
2022/07/27 04:59:20;;;;;;;9.75;9.45;;;17.10;99.90;;;;;;5129245;27;20261;-81
2022/07/27 05:01:49;;;;;;;9.90;9.60;;;17.10;99.90;;;;;;5128275;27;20263;-82
2022/07/27 05:07:06;;;;;;;10.10;9.80;;;17.30;99.90;;;;;;5138759;28;20215;-81
2022/07/27 05:09:35;;;;;;;10.07;9.77;;;17.40;99.90;;;;;;5133090;27;20241;-82
2022/07/27 05:12:04;;;;;;;10.00;9.70;;;17.50;99.90;;;;;;5128979;27;20224;-81
2022/07/27 05:14:34;;;;;;;10.10;9.80;;;17.60;99.90;;;;;;5127894;27;20236;-82
2022/07/27 05:17:07;;;;;;;10.25;9.95;;;17.70;99.90;;;;;;5127093;27;20318;-83
2022/07/27 05:19:37;;;;;;;9.95;9.65;;;17.80;99.90;;;;;;5127336;27;20287;-82
2022/07/27 05:22:05;;;;;;;9.93;9.63;;;17.80;99.90;;;;;;5126827;27;20224;-82
2022/07/27 05:24:33;;;;;;;9.95;9.65;;;17.80;99.90;;;;;;5130152;27;20224;-82
2022/07/27 05:27:03;;;;;;;10.00;9.70;;;18.00;99.90;;;;;;5130244;27;20229;-81
2022/07/27 05:29:33;;;;;;;10.07;9.77;;;18.00;99.90;;;;;;5147368;27;20232;-82
2022/07/27 05:32:02;;;;;;;9.88;9.57;;;18.00;99.90;;;;;;5146628;27;20232;-82
2022/07/27 05:34:31;;;;;;;10.10;9.80;;;18.10;99.90;;;;;;5147364;27;20255;-81
2022/07/27 05:37:09;;;;;;;9.70;9.40;;;18.10;99.90;;;;;;5147750;27;20243;-82
2022/07/27 05:39:41;;;;;;;9.95;9.65;;;18.20;99.90;;;;;;5151176;27;20339;-82
2022/07/27 05:42:08;;;;;;;9.77;9.48;;;18.20;99.90;;;;;;5152820;27;20224;-82
2022/07/27 05:44:38;;;;;;;10.00;9.70;;;18.30;99.90;;;;;;5153236;27;20235;-83
2022/07/27 05:47:07;;;;;;;9.90;9.60;;;18.40;99.90;;;;;;5150203;27;20239;-82
2022/07/27 05:49:37;;;;;;;10.00;9.70;;;18.40;99.90;;;;;;5147927;27;20323;-82
2022/07/27 05:52:15;;;;;;;10.13;9.82;;;18.50;99.90;;;;;;5148168;27;20269;-81
2022/07/27 05:54:45;;;;;;;9.98;9.68;;;18.60;99.90;;;;;;5148007;27;21099;-82
2022/07/27 05:57:14;;;;;;;10.02;9.73;;;18.60;99.90;;;;;;5147121;27;20263;-82
2022/07/27 05:59:43;;;;;;;10.02;9.73;;;18.70;99.90;;;;;;5149345;27;20223;-81
2022/07/27 06:02:13;;;;;;;10.10;9.80;;;18.80;99.90;;;;;;5158244;27;20240;-82
2022/07/27 06:04:42;;;;;;;10.07;9.77;;;18.80;99.90;;;;;;5150897;27;20220;-82
2022/07/27 06:10:00;;;;;;;10.02;9.73;;;19.00;99.90;;;;;;5148338;27;20204;-83
2022/07/27 06:12:28;;;;;;;9.90;9.60;;;19.10;99.90;;;;;;5135112;27;20217;-82
2022/07/27 06:14:57;;;;;;;9.77;9.48;;;19.20;99.90;;;;;;5146042;27;20248;-82
2022/07/27 06:17:27;;;;;;;10.50;10.20;;;19.20;99.90;;;;;;5144074;27;20416;-82
2022/07/27 06:19:56;;;;;;;10.48;10.18;;;19.30;99.90;;;;;;5145125;27;20297;-82
2022/07/27 06:22:35;;;;;;;10.40;10.10;;;19.50;99.90;;;;;;5144387;27;20228;-82
2022/07/27 06:25:06;;;;;;;10.00;9.70;;;19.60;99.90;;;;;;5144195;27;20262;-83
2022/07/27 06:27:36;;;;;;;9.95;9.65;;;19.80;99.90;;;;;;5147682;27;20228;-85
2022/07/27 06:30:04;;;;;;;10.25;9.95;;;19.80;99.90;;;;;;5148198;27;20224;-86
2022/07/27 06:32:33;;;;;;;10.00;9.70;;;19.70;99.90;;;;;;5145152;27;20243;-86
2022/07/27 06:35:03;;;;;;;10.23;9.93;;;19.80;99.90;;;;;;5142153;27;20323;-87
2022/07/27 06:37:34;;;;;;;10.35;10.05;;;19.90;99.90;;;;;;5141849;27;20240;-86
2022/07/27 06:40:19;;;;;;;10.50;10.20;;;19.90;99.90;;;;;;5142576;27;20316;-84
2022/07/27 06:42:48;;;;;;;10.20;9.90;;;20.00;99.90;;;;;;5141166;27;20227;-87
2022/07/27 06:45:17;;;;;;;9.98;9.68;;;20.10;99.90;;;;;;5140137;27;20232;-85
2022/07/27 06:47:58;;;;;;;10.30;10.00;;;20.20;99.90;;;;;;5141082;27;20714;-87
2022/07/27 06:50:43;;;;;;;10.30;10.00;;;20.20;99.90;;;;;;5140772;27;20220;-87
2022/07/27 06:53:51;;;;;;;10.15;9.85;;;20.40;99.90;;;;;;5141047;27;20285;-88
2022/07/27 06:56:39;;;;;;;10.20;9.90;;;20.40;99.90;;;;;;5140624;27;20230;-89
2022/07/27 07:01:56;;;;;;;10.40;10.10;;;20.60;99.90;;;;;;5137050;27;20281;-89
2022/07/27 07:04:25;;;;;;;10.27;9.98;;;20.70;99.90;;;;;;5125914;27;20235;-89
2022/07/27 07:09:46;;;;;;;9.90;9.60;;;21.00;99.90;;;;;;5118858;27;20236;-90
2022/07/27 07:12:17;;;;;;;10.13;9.82;;;21.20;99.90;;;;;;5121850;28;20236;-88
2022/07/27 07:14:57;;;;;;;9.90;9.60;;;21.20;99.90;;;;;;5121444;27;20228;-90
2022/07/27 07:30:46;;;;;;;10.20;9.90;;;21.60;99.90;;;;;;5122519;27;20272;-86
2022/07/27 07:34:12;;;;;;;10.13;9.82;;;21.80;99.90;;;;;;5124173;28;20250;-86
2022/07/27 07:36:46;;;;;;;10.43;10.13;;;21.90;99.90;;;;;;5122753;28;20234;-85
2022/07/27 07:40:00;;;;;;;10.32;10.02;;;22.00;99.90;;;;;;5123769;28;20224;-84
2022/07/27 07:53:01;;;;;;;10.40;10.10;;;21.90;99.90;;;;;;5119760;28;20270;-86
2022/07/27 07:55:29;;;;;;;10.07;9.77;;;22.10;99.90;;;;;;5125079;27;20232;-81
2022/07/27 07:58:17;;;;;;;10.30;10.00;;;22.20;99.90;;;;;;5123741;28;20327;-85
2022/07/27 08:00:49;;;;;;;10.70;10.40;;;22.30;99.90;;;;;;5122198;27;20225;-80
2022/07/27 08:03:18;;;;;;;10.40;10.10;;;22.30;99.90;;;;;;5121744;27;20240;-81
2022/07/27 08:05:55;;;;;;;10.40;10.10;;;22.40;99.90;;;;;;5130769;27;20286;-80
2022/07/27 08:08:59;;;;;;;10.27;9.98;;;22.50;99.90;;;;;;5124968;28;20232;-79
2022/07/27 08:11:41;;;;;;;10.35;10.05;;;22.60;99.90;;;;;;5138596;27;20256;-80
2022/07/27 08:14:34;;;;;;;10.23;9.93;;;22.50;99.90;;;;;;5133857;27;20274;-81
2022/07/27 08:17:37;;;;;;;10.35;10.05;;;22.50;99.90;;;;;;5139179;27;20228;-80
2022/07/27 08:20:07;;;;;;;10.20;9.90;;;22.70;99.90;;;;;;5143590;27;20231;-81
2022/07/27 08:22:48;;;;;;;10.48;10.18;;;22.70;99.90;;;;;;5144536;27;20231;-81
2022/07/27 08:25:16;;;;;;;10.55;10.25;;;22.50;99.90;;;;;;5146903;27;20232;-81
2022/07/27 08:27:45;;;;;;;10.55;10.25;;;22.50;99.90;;;;;;5147738;27;20235;-79
2022/07/27 08:30:16;;;;;;;10.65;10.35;;;22.50;99.90;;;;;;5145937;27;20296;-79
2022/07/27 08:33:09;;;;;;;10.60;10.30;;;22.50;99.90;;;;;;5146819;27;20236;-80
2022/07/27 08:35:47;;;;;;;10.50;10.20;;;22.60;99.90;;;;;;5144828;27;20314;-79
2022/07/27 08:51:28;;;;;;;11.13;10.82;;;23.40;99.90;;;;;;4966118;28;20243;-85
2022/07/27 08:54:01;;;;;;;11.40;11.10;;;23.70;99.90;;;;;;5017627;28;20242;-84
2022/07/27 08:56:28;;;;;;;10.88;10.57;;;23.80;99.90;;;;;;4993944;28;20333;-85
2022/07/27 09:01:43;;;;;;;10.90;10.60;;;24.20;99.90;;;;;;5083395;28;20268;-84
2022/07/27 09:04:12;;;;;;;10.77;10.48;;;24.30;99.90;;;;;;5084919;28;20236;-83
2022/07/27 09:06:45;;;;;;;10.68;10.38;;;24.40;99.90;;;;;;5084264;28;20266;-85
2022/07/27 09:09:21;;;;;;;10.95;10.65;;;24.40;99.90;;;;;;5083736;28;20226;-83
2022/07/27 09:12:08;;;;;;;10.80;10.50;;;24.40;99.90;;;;;;5084214;28;20229;-83
2022/07/27 09:15:04;;;;;;;10.75;10.45;;;24.60;99.90;;;;;;5084342;28;20237;-85
2022/07/27 09:17:35;;;;;;;10.88;10.57;;;24.80;99.90;;;;;;5084121;28;20293;-83
2022/07/27 09:20:05;;;;;;;10.73;10.43;;;24.80;99.90;;;;;;5085447;28;20232;-85
2022/07/27 09:22:51;;;;;;;10.93;10.63;;;25.00;99.90;;;;;;5084634;28;20234;-84
2022/07/27 09:25:35;;;;;;;10.77;10.48;;;24.70;99.90;;;;;;5099287;28;20233;-85
2022/07/27 09:28:07;;;;;;;11.27;10.98;;;24.50;99.90;;;;;;5104271;28;20328;-86
2022/07/27 09:30:46;;;;;;;10.88;10.57;;;24.50;99.90;;;;;;5104300;28;20253;-85
2022/07/27 09:33:16;;;;;;;10.75;10.45;;;24.60;99.90;;;;;;5102106;28;20221;-86
2022/07/27 09:35:45;;;;;;;10.95;10.65;;;24.50;99.90;;;;;;5105698;28;20222;-84
2022/07/27 09:38:24;;;;;;;10.45;10.15;;;24.50;99.90;;;;;;5106233;28;20293;-84
2022/07/27 09:41:10;;;;;;;10.75;10.45;;;24.50;99.90;;;;;;5114154;28;20233;-83
2022/07/27 09:43:48;;;;;;;10.80;10.50;;;25.00;99.90;;;;;;5118246;28;20233;-83
2022/07/27 09:46:17;;;;;;;10.45;10.15;;;25.10;99.90;;;;;;5120324;28;20324;-84
2022/07/27 09:48:47;;;;;;;10.70;10.40;;;24.90;99.90;;;;;;5129616;28;20225;-83
2022/07/27 09:51:16;;;;;;;10.75;10.45;;;24.80;99.90;;;;;;5111321;28;20229;-83
2022/07/27 09:53:45;;;;;;;10.70;10.40;;;25.00;99.90;;;;;;5107778;28;20299;-84
2022/07/27 09:56:27;;;;;;;10.90;10.60;;;24.90;99.90;;;;;;5107228;28;20221;-85
2022/07/27 09:58:56;;;;;;;10.70;10.40;;;25.10;99.90;;;;;;5107143;28;20229;-84
2022/07/27 10:01:25;;;;;;;10.60;10.30;;;25.80;99.90;;;;;;5103916;28;20226;-84
2022/07/27 10:04:01;;;;;;;10.50;10.20;;;26.30;99.90;;;;;;5103946;28;20294;-85
2022/07/27 10:06:30;;;;;;;10.52;10.23;;;26.30;99.90;;;;;;5103259;28;20234;-85
2022/07/27 10:09:00;;;;;;;10.55;10.25;;;26.10;99.90;;;;;;5104086;28;20295;-83
2022/07/27 10:11:38;;;;;;;10.35;10.05;;;25.50;99.90;;;;;;5104789;28;20233;-86
2022/07/27 10:14:07;;;;;;;10.73;10.43;;;25.30;99.90;;;;;;5107791;28;20248;-86
2022/07/27 10:16:38;;;;;;;10.70;10.40;;;25.20;99.90;;;;;;5107173;28;20229;-85
2022/07/27 10:19:18;;;;;;;10.57;10.27;;;25.10;99.90;;;;;;5114111;28;20247;-85
2022/07/27 10:21:56;;;;;;;10.65;10.35;;;24.90;99.90;;;;;;5126523;28;20236;-86
2022/07/27 10:24:35;;;;;;;10.70;10.40;;;25.00;99.90;;;;;;5106980;28;20229;-87
2022/07/27 10:27:22;;;;;;;11.13;10.82;;;24.90;99.90;;;;;;5102564;28;20241;-87
2022/07/27 10:29:51;;;;;;;10.95;10.65;;;24.80;99.90;;;;;;5101587;28;20229;-87
2022/07/27 10:32:26;;;;;;;10.90;10.60;;;24.90;99.90;;;;;;5102051;28;20252;-85
2022/07/27 10:34:56;;;;;;;10.70;10.40;;;25.30;99.90;;;;;;5101890;28;20231;-86
2022/07/27 10:37:28;;;;;;;10.60;10.30;;;25.50;99.90;;;;;;5101204;28;20252;-86
2022/07/27 10:42:48;;;;;;;10.43;10.13;;;26.20;99.90;;;;;;5125642;22;20244;-83
2022/07/27 10:45:18;;;;;;;10.70;10.40;;;26.70;99.90;;;;;;5100353;28;20233;-83
2022/07/27 10:47:47;;;;;;;10.38;10.07;;;26.70;99.90;;;;;;5123990;27;20290;-82
2022/07/27 10:50:31;;;;;;;10.57;10.27;;;26.20;99.90;;;;;;5132058;27;20282;-83
2022/07/27 10:53:05;;;;;;;10.20;9.90;;;26.10;99.90;;;;;;5098973;28;20325;-83
2022/07/27 10:55:52;;;;;;;10.50;10.20;;;25.80;99.90;;;;;;5089224;27;20202;-83
2022/07/27 10:58:51;;;;;;;10.57;10.27;;;25.60;99.90;;;;;;5120707;27;20233;-83
2022/07/27 11:01:21;;;;;;;10.90;10.60;;;24.90;99.90;;;;;;5113379;27;20214;-82
2022/07/27 11:03:54;;;;;;;10.98;10.68;;;24.90;99.90;;;;;;5098983;28;20210;-82
2022/07/27 11:06:28;;;;;;;10.63;10.32;;;25.20;99.90;;;;;;5099277;28;20282;-80
2022/07/27 11:08:58;;;;;;;10.63;10.32;;;25.80;99.90;;;;;;5100716;27;20214;-81
2022/07/27 11:11:33;;;;;;;10.82;10.52;;;26.40;99.90;;;;;;5099784;27;20286;-84
2022/07/27 11:14:02;;;;;;;10.65;10.35;;;26.90;99.90;;;;;;5099303;27;20236;-79
2022/07/27 11:16:31;;;;;;;10.70;10.40;;;27.30;99.90;;;;;;5083071;28;20222;-80
2022/07/27 11:19:02;;;;;;;10.73;10.43;;;27.70;99.90;;;;;;5077438;28;20243;-80
2022/07/27 11:21:34;;;;;;;10.73;10.43;;;27.30;99.90;;;;;;5077055;28;20221;-81
2022/07/27 11:24:05;;;;;;;10.40;10.10;;;27.70;99.90;;;;;;5079513;28;20222;-82
2022/07/27 11:26:45;;;;;;;10.50;10.20;;;27.60;99.90;;;;;;5078347;28;20210;-81
2022/07/27 11:29:17;;;;;;;10.50;10.20;;;27.30;99.90;;;;;;5074374;28;20261;-81
2022/07/27 11:31:47;;;;;;;10.52;10.23;;;27.10;99.90;;;;;;5071142;28;20234;-80
2022/07/27 11:34:16;;;;;;;10.65;10.35;;;26.80;99.90;;;;;;5076224;28;20215;-85
2022/07/27 11:36:47;;;;;;;10.90;10.60;;;26.20;99.90;;;;;;5079308;28;20211;-85
2022/07/27 11:39:16;;;;;;;10.80;10.50;;;26.20;99.90;;;;;;5077968;28;20222;-83
2022/07/27 11:41:48;;;;;;;10.98;10.68;;;26.20;99.90;;;;;;5065542;28;20230;-87
2022/07/27 11:44:23;;;;;;;11.00;10.70;;;26.40;99.90;;;;;;5062687;28;20263;-83
2022/07/27 11:46:52;;;;;;;11.07;10.77;;;26.70;99.90;;;;;;5062525;28;20221;-81
2022/07/27 11:49:27;;;;;;;11.25;10.95;;;26.50;99.90;;;;;;5060652;28;20254;-80
2022/07/27 11:51:57;;;;;;;11.00;10.70;;;26.60;99.90;;;;;;5061711;28;20266;-81
2022/07/27 11:54:27;;;;;;;10.70;10.40;;;26.80;99.90;;;;;;5062520;28;20240;-79
2022/07/27 11:56:57;;;;;;;10.57;10.27;;;26.60;99.90;;;;;;5062439;28;20334;-79
2022/07/27 11:59:29;;;;;;;10.48;10.18;;;26.50;99.90;;;;;;5063069;28;20257;-79
2022/07/27 12:01:59;;;;;;;10.70;10.40;;;26.50;99.90;;;;;;5063987;28;20254;-79
2022/07/27 12:04:29;;;;;;;10.85;10.55;;;26.50;99.90;;;;;;5061266;28;20257;-79
2022/07/27 12:07:09;;;;;;;10.60;10.30;;;26.00;99.90;;;;;;5061615;28;20261;-80
2022/07/27 12:09:42;;;;;;;10.85;10.55;;;25.90;99.90;;;;;;5061568;28;20265;-78
2022/07/27 12:12:13;;;;;;;10.88;10.57;;;26.20;99.90;;;;;;5061079;28;20235;-80
2022/07/27 12:14:46;;;;;;;10.70;10.40;;;26.30;99.90;;;;;;5064949;28;20226;-79
2022/07/27 12:17:27;;;;;;;10.75;10.45;;;26.60;99.90;;;;;;5065971;28;20231;-79
2022/07/27 12:20:02;;;;;;;10.98;10.68;;;27.00;99.90;;;;;;5067141;28;21156;-80
2022/07/27 12:22:34;;;;;;;10.77;10.48;;;27.20;99.90;;;;;;5064193;28;20261;-78
2022/07/27 12:25:06;;;;;;;11.00;10.70;;;27.50;99.90;;;;;;5065765;28;20274;-79
2022/07/27 12:27:35;;;;;;;10.80;10.50;;;27.10;99.90;;;;;;5062578;28;20245;-78
2022/07/27 12:30:11;;;;;;;10.70;10.40;;;26.60;99.90;;;;;;5061268;28;20240;-77
2022/07/27 12:32:42;;;;;;;10.60;10.30;;;26.50;99.90;;;;;;5081794;28;20253;-77
2022/07/27 12:35:25;;;;;;;10.57;10.27;;;26.40;99.90;;;;;;5077964;28;20234;-77
2022/07/27 12:38:01;;;;;;;10.95;10.65;;;26.10;99.90;;;;;;5078584;28;20399;-78
2022/07/27 12:40:31;;;;;;;10.70;10.40;;;25.70;99.90;;;;;;5079678;28;20289;-78
2022/07/27 12:43:01;;;;;;;10.65;10.35;;;25.50;99.90;;;;;;5078866;28;20273;-77
2022/07/27 12:45:37;;;;;;;10.20;9.90;;;25.70;99.90;;;;;;5077698;28;20276;-79
2022/07/27 12:48:08;;;;;;;10.27;9.98;;;26.00;99.90;;;;;;5081520;28;20234;-78
2022/07/27 12:50:36;;;;;;;10.40;10.10;;;26.20;99.90;;;;;;5079218;28;20236;-78
2022/07/27 12:53:04;;;;;;;10.60;10.30;;;26.40;99.90;;;;;;5084578;28;20226;-82
2022/07/27 12:55:33;;;;;;;10.98;10.68;;;26.90;99.90;;;;;;5083763;28;20400;-84
2022/07/27 12:58:01;;;;;;;10.43;10.13;;;27.30;99.90;;;;;;5088471;28;20237;-83
2022/07/27 13:00:30;;;;;;;10.50;10.20;;;27.60;99.90;;;;;;5096400;28;20233;-82
2022/07/27 13:03:00;;;;;;;10.30;10.00;;;27.50;99.90;;;;;;5071430;28;20234;-81
2022/07/27 13:05:28;;;;;;;10.00;9.70;;;27.60;99.90;;;;;;5089325;28;20238;-82
2022/07/27 13:07:56;;;;;;;9.82;9.52;;;27.80;99.90;;;;;;5089344;28;20327;-83
2022/07/27 13:10:24;;;;;;;10.20;9.90;;;28.30;99.90;;;;;;5080854;28;20230;-83
2022/07/27 13:12:52;;;;;;;10.15;9.85;;;28.40;99.90;;;;;;5088109;28;20253;-83
2022/07/27 13:15:20;;;;;;;10.00;9.70;;;28.60;99.90;;;;;;5092735;28;20229;-83
2022/07/27 13:17:48;;;;;;;10.30;10.00;;;28.70;99.90;;;;;;5091837;28;20236;-83
2022/07/27 13:20:18;;;;;;;10.15;9.85;;;28.90;99.90;;;;;;5088026;28;20230;-82
2022/07/27 13:22:47;;;;;;;10.05;9.75;;;28.90;99.90;;;;;;5081709;28;20268;-83
2022/07/27 13:25:16;;;;;;;10.20;9.90;;;28.60;99.90;;;;;;5082553;28;20685;-83
2022/07/27 13:27:45;;;;;;;10.50;10.20;;;28.50;99.90;;;;;;5081592;28;20240;-83
2022/07/27 13:30:15;;;;;;;10.40;10.10;;;28.60;99.90;;;;;;5083919;28;20230;-82
2022/07/27 13:32:46;;;;;;;10.60;10.30;;;29.00;99.90;;;;;;5082287;28;20237;-81
2022/07/27 13:35:15;;;;;;;10.90;10.60;;;29.10;99.90;;;;;;5082751;28;20222;-80
2022/07/27 13:37:44;;;;;;;10.65;10.35;;;29.50;99.90;;;;;;5082660;28;20238;-81
2022/07/27 13:40:13;;;;;;;11.30;11.00;;;29.50;99.90;;;;;;5082516;28;20405;-82
2022/07/27 13:42:41;;;;;;;11.10;10.80;;;29.10;99.90;;;;;;5082095;28;20245;-80
2022/07/27 13:45:09;;;;;;;11.02;10.73;;;29.00;99.90;;;;;;5082451;28;20215;-80
2022/07/27 13:47:38;;;;;;;10.93;10.63;;;29.30;99.90;;;;;;5075301;28;20320;-77
2022/07/27 13:50:08;;;;;;;10.80;10.50;;;29.50;99.90;;;;;;5076946;28;20237;-77
2022/07/27 13:52:35;;;;;;;10.55;10.25;;;29.30;99.90;;;;;;5076039;28;20241;-76
2022/07/27 13:55:06;;;;;;;10.77;10.48;;;29.10;99.90;;;;;;5075647;28;20230;-76